Castlebar Airport

Jump to: basic info | weather | comments

Related pages: nearby airports | nearby navaids | notams | map

Basic information (top)

Codes: CLB EICB
Location: lon 53.848400, lat -9.280370
Status: small_airport

Weather (top)

Current conditions for Ireland West Knock Airport 17nm (31km) ENE (rec'd 2014/07/28 12:00Z):

EIKN 281200Z 33011KT 9999 FEW019 BKN023 BKN110 17/12 Q1021 NOSIG

Airport forecast for Ireland West Knock Airport 17nm (31km) ENE (rec'd 2014/07/28 12:24Z):

TAF EIKN 281100Z 2812/2912 31010KT 9999 SCT012 BKN020 
      BECMG 2817/2819 23007KT 
      BECMG 2819/2821 5000 -DZ BKN007 
      TEMPO 2822/2903 2000 -DZ SCT001 BKN002 PROB30 
      TEMPO 2900/2903 0400 FG OVC001 
      BECMG 2903/2905 31010KT 9999 NSW SCT012 BKN020

Latest comments (top)

No longer exists.: This airport was closed in 2001 and the ... [read]

fv: fg [read]

More... (top)

See also NOTAMs and nearby airports and navaids, or visit the Castlebar Airport page at the main OurAirports website..